KJFK/JFK METAR and TAF weather

Enter ICAO airport designator
Station Type Date Time Source
KJFK METAR 2021/05/14 13:51 UTC NOAA

KJFK 141351Z VRB03KT 10SM CLR 20/03 A3024 RMK AO2 SLP240 T02000028


Station Type Date Time Source
KJFK Decoded METAR 2021/05/14 13:51 UTC NOAA

KENNEDY INTERNATIONAL AIRPORT , NY, United States (KJFK) 40-38N 073-46W 9M
May 14, 2021 - 09:51 AM EDT / 2021.05.14 1351 UTC
Wind: Variable at 3 MPH (3 KT):0
Visibility: 10 mile(s):0
Sky conditions: clear
Temperature: 68.0 F (20.0 C)
Dew Point: 37.0 F (2.8 C)
Relative Humidity: 31%
Pressure (altimeter): 30.24 in. Hg (1024 hPa)
ob: KJFK 141351Z VRB03KT 10SM CLR 20/03 A3024 RMK AO2 SLP240 T02000028
cycle: 14

Station Type Date Time Source
KJFK TAF 2021/05/14 12:34 UTC NOAA

TAF KJFK 141126Z 1412/1518 VRB05KT P6SM FEW250
FM141400 28006KT P6SM SCT250
FM141600 21008KT P6SM FEW080 SCT250
FM141900 19013KT P6SM SCT080 SCT250
FM150300 VRB05KT P6SM FEW250
FM151700 20010KT P6SM SCT250

Example: see airport list